Science Garden, Philippines

2:29 AM PHT on August 05, 2015 (GMT +0800)
Loyola Heights | | Change Station
CLOSE
Current Station
Personal Weather Station
Location: Quezon City, NCR
Elevation: 187 ft
Nearby Weather Stations

Elev 187 ft 14.64 °N, 121.08 °E | Updated 11 minutes ago

Mostly Cloudy
Mostly Cloudy
75.4 °F
Feels Like 73 °F
N
0.0
Wind Variable Wind from NNE

Today
High -- | Low -- °F
--% Chance of Precip.
Yesterday
High -- | Low -- °F
Precip. -- in
5:39 AM 6:23 PM
Waning Gibbous, 75% visible
Pressure 29.74 in
Visibility 6.2 miles
Clouds Scattered Clouds 2500 ft
Mostly Cloudy 10000 ft
Heat Index 73 °F
Dew Point 75 °F
Humidity 99%
Rainfall 0.00 in
Snow Depth Not available.
UV 0.0 out of 12
Pollen Not available.
Air Quality Not available.
Flu Activity Not available.
METAR RPLL 041800Z VRB01KT 9999 SCT025 BKN100 25/25 Q1007 NOSIG RMK A2974

More Conditions Fewer Conditions

Pressure 29.74 in
Visibility 6.2 miles
Clouds Scattered Clouds 2500 ft
Mostly Cloudy 10000 ft
Heat Index 73 °F
Dew Point 75 °F
Humidity 99%
Rainfall 0.00 in
Snow Depth Not available.
UV 0.0 out of 12
Pollen Not available.
Air Quality Not available.
Flu Activity Not available.
METAR RPLL 041800Z VRB01KT 9999 SCT025 BKN100 25/25 Q1007 NOSIG RMK A2974

More Conditions Fewer Conditions

10-Day Weather Forecast

×

Almanac

Astronomy

Aug. 05, 2015 Rise Set
Actual Time
Civil Twilight
Nautical Twilight
Astronomical Twilight
Moon
Length of Visible Light
Length of Day
Tomorrow will be .
, % of the Moon is Illuminated

Today's Extremes

Country Highs Country Lows

Community

WunderPhotos

Upload Photos

1,843,937 photos uploaded!

WunderBlogs® & News

Nearby

Air Quality

  Air Quality AQ Index Pollutant
Not available.

Snow Depth

Station Depth Elevation

Earthquake Activity

City Distance Mag. Time & Date
Minimum magnitude displayed is 2.5.

Coastal Water Temperatures

Place Temperature

Stations

Nearby Weather Stations

Station Location Temp. Windchill Dew Point Humidity Wind Precip. Elev Updated Type